地図

経路データ

SID SEASON NUMBER BASIN SUBBASIN NAME ISO_TIME NATURE LAT LON WMO_WIND WMO_PRES WMO_AGENCY TRACK_TYPE DIST2LAND LANDFALL IFLAG USA_AGENCY USA_ATCF_ID USA_LAT USA_LON USA_RECORD USA_STATUS USA_WIND USA_PRES USA_SSHS USA_R34_NE USA_R34_SE USA_R34_SW USA_R34_NW USA_R50_NE USA_R50_SE USA_R50_SW USA_R50_NW USA_R64_NE USA_R64_SE USA_R64_SW USA_R64_NW USA_POCI USA_ROCI USA_RMW USA_EYE TOKYO_LAT TOKYO_LON TOKYO_GRADE TOKYO_WIND TOKYO_PRES TOKYO_R50_DIR TOKYO_R50_LONG TOKYO_R50_SHORT TOKYO_R30_DIR TOKYO_R30_LONG TOKYO_R30_SHORT TOKYO_LAND CMA_LAT CMA_LON CMA_CAT CMA_WIND CMA_PRES HKO_LAT HKO_LON HKO_CAT HKO_WIND HKO_PRES NEWDELHI_LAT NEWDELHI_LON NEWDELHI_GRADE NEWDELHI_WIND NEWDELHI_PRES NEWDELHI_CI NEWDELHI_DP NEWDELHI_POCI REUNION_LAT REUNION_LON REUNION_TYPE REUNION_WIND REUNION_PRES REUNION_TNUM REUNION_CI REUNION_RMW REUNION_R34_NE REUNION_R34_SE REUNION_R34_SW REUNION_R34_NW REUNION_R50_NE REUNION_R50_SE REUNION_R50_SW REUNION_R50_NW REUNION_R64_NE REUNION_R64_SE REUNION_R64_SW REUNION_R64_NW BOM_LAT BOM_LON BOM_TYPE BOM_WIND BOM_PRES BOM_TNUM BOM_CI BOM_RMW BOM_R34_NE BOM_R34_SE BOM_R34_SW BOM_R34_NW BOM_R50_NE BOM_R50_SE BOM_R50_SW BOM_R50_NW BOM_R64_NE BOM_R64_SE BOM_R64_SW BOM_R64_NW BOM_ROCI BOM_POCI BOM_EYE BOM_POS_METHOD BOM_PRES_METHOD NADI_LAT NADI_LON NADI_CAT NADI_WIND NADI_PRES WELLINGTON_LAT WELLINGTON_LON WELLINGTON_WIND WELLINGTON_PRES DS824_LAT DS824_LON DS824_STAGE DS824_WIND DS824_PRES TD9636_LAT TD9636_LON TD9636_STAGE TD9636_WIND TD9636_PRES TD9635_LAT TD9635_LON TD9635_WIND TD9635_PRES TD9635_ROCI NEUMANN_LAT NEUMANN_LON NEUMANN_CLASS NEUMANN_WIND NEUMANN_PRES MLC_LAT MLC_LON MLC_CLASS MLC_WIND MLC_PRES USA_GUST BOM_GUST BOM_GUST_PER REUNION_GUST REUNION_GUST_PER USA_SEAHGT USA_SEARAD_NE USA_SEARAD_SE USA_SEARAD_SW USA_SEARAD_NW STORM_SPEED STORM_DIR
1941252N12146 1941 54 WP MM NOT_NAMED 1941-09-08 21:00:00 NR 12.0000 146.400 main 1579 1579 __________O___ -1 12.0000 146.400 4 8 291
1941252N12146 1941 54 WP MM NOT_NAMED 1941-09-09 00:00:00 NR 12.1348 146.035 main 1592 1592 __________P___ -1 12.1348 146.035 4 8 291
1941252N12146 1941 54 WP MM NOT_NAMED 1941-09-09 03:00:00 NR 12.2755 145.675 main 1616 1616 __________P___ -1 12.2755 145.675 4 8 293
1941252N12146 1941 54 WP MM NOT_NAMED 1941-09-09 06:00:00 NR 12.4284 145.328 main 1630 1630 __________P___ -1 12.4284 145.328 4 7 296
1941252N12146 1941 54 WP MM NOT_NAMED 1941-09-09 09:00:00 NR 12.6000 145.000 main 1656 1656 __________O___ -1 12.6000 145.000 4 7 301
1941252N12146 1941 54 WP MM NOT_NAMED 1941-09-09 12:00:00 NR 12.7935 144.694 main 1682 1682 __________P___ -1 12.7935 144.694 4 7 304
1941252N12146 1941 54 WP MM NOT_NAMED 1941-09-09 15:00:00 NR 12.9996 144.400 main 1709 1709 __________P___ -1 12.9996 144.400 4 7 306
1941252N12146 1941 54 WP MM NOT_NAMED 1941-09-09 18:00:00 NR 13.2060 144.106 main 1736 1736 __________P___ -1 13.2060 144.106 4 7 304
1941252N12146 1941 54 WP MM NOT_NAMED 1941-09-09 21:00:00 NR 13.4000 143.800 main 1763 1763 __________O___ -1 13.4000 143.800 4 7 299
1941252N12146 1941 54 WP MM NOT_NAMED 1941-09-10 00:00:00 NR 13.5522 143.452 main 1791 1790 __________P___ -1 13.5522 143.452 4 7 293
1941252N12146 1941 54 WP MM NOT_NAMED 1941-09-10 03:00:00 NR 13.6926 143.092 main 1797 1794 __________P___ -1 13.6926 143.092 4 8 292
1941252N12146 1941 54 WP MM NOT_NAMED 1941-09-10 06:00:00 NR 13.8366 142.736 main 1795 1795 __________P___ -1 13.8366 142.736 4 7 295
1941252N12146 1941 54 WP MM NOT_NAMED 1941-09-10 09:00:00 NR 14.0000 142.400 main 1806 1801 __________O___ -1 14.0000 142.400 4 7 301
1941252N12146 1941 54 WP MM NOT_NAMED 1941-09-10 12:00:00 NR 14.2073 142.095 main 1805 1777 __________P___ -1 14.2073 142.095 4 7 307
1941252N12146 1941 54 WP MM NOT_NAMED 1941-09-10 15:00:00 NR 14.4348 141.812 main 1777 1760 __________P___ -1 14.4348 141.812 4 7 311
1941252N12146 1941 54 WP MM NOT_NAMED 1941-09-10 18:00:00 NR 14.6699 141.548 main 1752 1734 __________P___ -1 14.6699 141.548 4 7 313
1941252N12146 1941 54 WP MM NOT_NAMED 1941-09-10 21:00:00 NR 14.9000 141.300 main 1734 1715 __________O___ -1 14.9000 141.300 4 6 313
1941252N12146 1941 54 WP MM NOT_NAMED 1941-09-11 00:00:00 NR 15.1111 141.064 main 1717 1697 __________P___ -1 15.1111 141.064 4 6 313
1941252N12146 1941 54 WP MM NOT_NAMED 1941-09-11 03:00:00 NR 15.3148 140.842 main 1688 1671 __________P___ -1 15.3148 140.842 4 6 313
1941252N12146 1941 54 WP MM NOT_NAMED 1941-09-11 06:00:00 NR 15.5111 140.624 main 1671 1655 __________P___ -1 15.5111 140.624 4 6 312
1941252N12146 1941 54 WP MM NOT_NAMED 1941-09-11 09:00:00 NR 15.7000 140.400 main 1655 1636 __________O___ -1 15.7000 140.400 4 6 309
1941252N12146 1941 54 WP MM NOT_NAMED 1941-09-11 12:00:00 NR 15.8740 140.153 main 1639 1610 __________P___ -1 15.8740 140.153 4 6 305
1941252N12146 1941 54 WP MM NOT_NAMED 1941-09-11 15:00:00 NR 16.0425 139.900 main 1610 1592 __________P___ -1 16.0425 139.900 4 6 305
1941252N12146 1941 54 WP MM NOT_NAMED 1941-09-11 18:00:00 NR 16.2147 139.647 main 1584 1569 __________P___ -1 16.2147 139.647 4 6 307
1941252N12146 1941 54 WP MM NOT_NAMED 1941-09-11 21:00:00 NR 16.4000 139.400 main 1569 1552 __________O___ -1 16.4000 139.400 4 6 311
1941252N12146 1941 54 WP MM NOT_NAMED 1941-09-12 00:00:00 NR 16.6146 139.168 main 1555 1538 __________P___ -1 16.6146 139.168 4 6 315
1941252N12146 1941 54 WP MM NOT_NAMED 1941-09-12 03:00:00 NR 16.8424 138.942 main 1531 1518 __________P___ -1 16.8424 138.942 4 6 317
1941252N12146 1941 54 WP MM NOT_NAMED 1941-09-12 06:00:00 NR 17.0740 138.721 main 1522 1509 __________P___ -1 17.0740 138.721 4 6 317
1941252N12146 1941 54 WP MM NOT_NAMED 1941-09-12 09:00:00 NR 17.3000 138.500 main 1509 1494 __________O___ -1 17.3000 138.500 4 6 314
1941252N12146 1941 54 WP MM NOT_NAMED 1941-09-12 12:00:00 NR 17.4909 138.275 main 1498 1482 __________P___ -1 17.4909 138.275 4 6 311
1941252N12146 1941 54 WP MM NOT_NAMED 1941-09-12 15:00:00 NR 17.6774 138.050 main 1477 1466 __________P___ -1 17.6774 138.050 4 6 312
1941252N12146 1941 54 WP MM NOT_NAMED 1941-09-12 18:00:00 NR 17.8752 137.825 main 1466 1451 __________P___ -1 17.8752 137.825 4 6 315
1941252N12146 1941 54 WP MM NOT_NAMED 1941-09-12 21:00:00 NR 18.1000 137.600 main 1456 1447 __________O___ -1 18.1000 137.600 4 7 320
1941252N12146 1941 54 WP MM NOT_NAMED 1941-09-13 00:00:00 NR 18.3834 137.375 main 1452 1443 __________P___ -1 18.3834 137.375 4 7 324
1941252N12146 1941 54 WP MM NOT_NAMED 1941-09-13 03:00:00 NR 18.6924 137.150 main 1449 1436 __________P___ -1 18.6924 137.150 4 8 326
1941252N12146 1941 54 WP MM NOT_NAMED 1941-09-13 06:00:00 NR 19.0052 136.925 main 1438 1431 __________P___ -1 19.0052 136.925 4 7 325
1941252N12146 1941 54 WP MM NOT_NAMED 1941-09-13 09:00:00 NR 19.3000 136.700 main 1437 1410 __________O___ -1 19.3000 136.700 4 7 321
1941252N12146 1941 54 WP MM NOT_NAMED 1941-09-13 12:00:00 NR 19.5261 136.478 main 1410 1381 __________P___ -1 19.5261 136.478 4 6 316
1941252N12146 1941 54 WP MM NOT_NAMED 1941-09-13 15:00:00 NR 19.7348 136.257 main 1381 1348 __________P___ -1 19.7348 136.257 4 6 315
1941252N12146 1941 54 WP MM NOT_NAMED 1941-09-13 18:00:00 NR 19.9511 136.032 main 1338 1309 __________P___ -1 19.9511 136.032 4 6 317
1941252N12146 1941 54 WP MM NOT_NAMED 1941-09-13 21:00:00 NR 20.2000 135.800 main 1309 1270 __________O___ -1 20.2000 135.800 4 7 323
1941252N12146 1941 54 WP MM NOT_NAMED 1941-09-14 00:00:00 NR 20.5260 135.577 main 1270 1221 __________P___ -1 20.5260 135.577 4 8 328
1941252N12146 1941 54 WP MM NOT_NAMED 1941-09-14 03:00:00 NR 20.8846 135.345 main 1217 1179 __________P___ -1 20.8846 135.345 4 9 328
1941252N12146 1941 54 WP MM NOT_NAMED 1941-09-14 06:00:00 NR 21.2509 135.090 main 1168 1126 __________P___ -1 21.2509 135.090 4 9 325
1941252N12146 1941 54 WP MM NOT_NAMED 1941-09-14 09:00:00 NR 21.6000 134.800 main 1126 1084 __________O___ -1 21.6000 134.800 4 9 317
1941252N12146 1941 54 WP MM NOT_NAMED 1941-09-14 12:00:00 NR 21.8928 134.445 main 1080 1039 __________P___ -1 21.8928 134.445 4 9 309
1941252N12146 1941 54 WP MM NOT_NAMED 1941-09-14 15:00:00 NR 22.1655 134.057 main 1039 1005 __________P___ -1 22.1655 134.057 4 9 307
1941252N12146 1941 54 WP MM NOT_NAMED 1941-09-14 18:00:00 NR 22.4303 133.666 main 1005 962 __________P___ -1 22.4303 133.666 4 9 307
1941252N12146 1941 54 WP MM NOT_NAMED 1941-09-14 21:00:00 NR 22.7000 133.300 main 962 921 __________O___ -1 22.7000 133.300 4 9 311
1941252N12146 1941 54 WP MM NOT_NAMED 1941-09-15 00:00:00 NR 22.9926 132.972 main 921 882 __________P___ -1 22.9926 132.972 4 8 316
1941252N12146 1941 54 WP MM NOT_NAMED 1941-09-15 03:00:00 NR 23.2923 132.675 main 882 843 __________P___ -1 23.2923 132.675 4 8 320
1941252N12146 1941 54 WP MM NOT_NAMED 1941-09-15 06:00:00 NR 23.5959 132.416 main 843 806 __________P___ -1 23.5959 132.416 4 8 324
1941252N12146 1941 54 WP MM NOT_NAMED 1941-09-15 09:00:00 NR 23.9000 132.200 main 806 769 __________O___ -1 23.9000 132.200 4 7 329
1941252N12146 1941 54 WP MM NOT_NAMED 1941-09-15 12:00:00 NR 24.2241 132.007 main 769 735 __________P___ -1 24.2241 132.007 4 7 334
1941252N12146 1941 54 WP MM NOT_NAMED 1941-09-15 15:00:00 NR 24.5447 131.860 main 735 700 __________P___ -1 24.5447 131.860 4 7 340
1941252N12146 1941 54 WP MM NOT_NAMED 1941-09-15 18:00:00 NR 24.8430 131.757 main 700 665 __________P___ -1 24.8430 131.757 4 6 346
1941252N12146 1941 54 WP MM NOT_NAMED 1941-09-15 21:00:00 NR 25.1000 131.700 main 665 643 __________O___ -1 25.1000 131.700 4 5 351
1941252N12146 1941 54 WP MM NOT_NAMED 1941-09-16 00:00:00 NR 25.2930 131.673 main 643 632 __________P___ -1 25.2930 131.673 4 3 359
1941252N12146 1941 54 WP MM NOT_NAMED 1941-09-16 03:00:00 NR 25.4449 131.690 main 632 610 __________P___ -1 25.4449 131.690 4 3 12
1941252N12146 1941 54 WP MM NOT_NAMED 1941-09-16 06:00:00 NR 25.5743 131.736 main 610 601 __________P___ -1 25.5743 131.736 4 3 21
1941252N12146 1941 54 WP MM NOT_NAMED 1941-09-16 09:00:00 NR 25.7000 131.800 main 601 590 __________O___ -1 25.7000 131.800 4 3 19
1941252N12146 1941 54 WP MM NOT_NAMED 1941-09-16 12:00:00 NR 25.8458 131.841 main 590 570 __________P___ -1 25.8458 131.841 4 3 17
1941252N12146 1941 54 WP MM NOT_NAMED 1941-09-16 15:00:00 NR 25.9923 131.898 main 570 559 __________P___ -1 25.9923 131.898 4 3 23
1941252N12146 1941 54 WP MM NOT_NAMED 1941-09-16 18:00:00 NR 26.1427 131.981 main 561 542 __________P___ -1 26.1427 131.981 4 4 30
1941252N12146 1941 54 WP MM NOT_NAMED 1941-09-16 21:00:00 NR 26.3000 132.100 main 542 525 __________O___ -1 26.3000 132.100 4 4 38
1941252N12146 1941 54 WP MM NOT_NAMED 1941-09-17 00:00:00 NR 26.4679 132.264 main 525 518 __________P___ -1 26.4679 132.264 4 5 43
1941252N12146 1941 54 WP MM NOT_NAMED 1941-09-17 03:00:00 NR 26.6426 132.462 main 521 503 __________P___ -1 26.6426 132.462 4 5 46
1941252N12146 1941 54 WP MM NOT_NAMED 1941-09-17 06:00:00 NR 26.8210 132.680 main 507 490 __________P___ -1 26.8210 132.680 4 5 48
1941252N12146 1941 54 WP MM NOT_NAMED 1941-09-17 09:00:00 NR 27.0000 132.900 main 494 489 __________O___ -1 27.0000 132.900 4 5 45
1941252N12146 1941 54 WP MM NOT_NAMED 1941-09-17 12:00:00 NR 27.1498 133.049 main 489 474 __________P___ -1 27.1498 133.049 4 4 42
1941252N12146 1941 54 WP MM NOT_NAMED 1941-09-17 15:00:00 NR 27.3036 133.205 main 478 470 __________P___ -1 27.3036 133.205 4 5 44
1941252N12146 1941 54 WP MM NOT_NAMED 1941-09-17 18:00:00 NR 27.4807 133.409 main 470 463 __________P___ -1 27.4807 133.409 4 6 48
1941252N12146 1941 54 WP MM NOT_NAMED 1941-09-17 21:00:00 NR 27.7000 133.700 main 468 459 __________O___ -1 27.7000 133.700 4 8 51
1941252N12146 1941 54 WP MM NOT_NAMED 1941-09-18 00:00:00 NR 27.9944 134.118 main 460 456 __________P___ -1 27.9944 134.118 4 10 53
1941252N12146 1941 54 WP MM NOT_NAMED 1941-09-18 03:00:00 NR 28.3279 134.629 main 463 460 __________P___ -1 28.3279 134.629 4 12 55
1941252N12146 1941 54 WP MM NOT_NAMED 1941-09-18 06:00:00 NR 28.6723 135.200 main 473 473 __________P___ -1 28.6723 135.200 4 12 57
1941252N12146 1941 54 WP MM NOT_NAMED 1941-09-18 09:00:00 NR 29.0000 135.800 main 490 470 __________O___ -1 29.0000 135.800 4 10 61
1941252N12146 1941 54 WP MM NOT_NAMED 1941-09-18 12:00:00 NR 29.1626 136.230 main 470 462 __________P___ -1 29.1626 136.230 4 9 68
1941252N12146 1941 54 WP MM NOT_NAMED 1941-09-18 15:00:00 NR 29.3225 136.701 main 465 447 __________P___ -1 29.3225 136.701 4 10 67
1941252N12146 1941 54 WP MM NOT_NAMED 1941-09-18 18:00:00 NR 29.5717 137.320 main 447 437 __________P___ -1 29.5717 137.320 4 15 63
1941252N12146 1941 54 WP MM NOT_NAMED 1941-09-18 21:00:00 NR 30.0000 138.200 main 441 437 __________O___ -1 30.0000 138.200 4 22 59
1941252N12146 1941 54 WP MM NOT_NAMED 1941-09-19 00:00:00 NR 30.7182 139.535 main 439 392 __________P___ -1 30.7182 139.535 4 30 58
1941252N12146 1941 54 WP MM NOT_NAMED 1941-09-19 03:00:00 NR 31.6007 141.149 main 384 367 __________P___ -1 31.6007 141.149 4 34 57
1941252N12146 1941 54 WP MM NOT_NAMED 1941-09-19 06:00:00 NR 32.5559 142.891 main 370 370 __________P___ -1 32.5559 142.891 4 35 57
1941252N12146 1941 54 WP MM NOT_NAMED 1941-09-19 09:00:00 NR 33.5000 144.600 main 417 417 __________O___ -1 33.5000 144.600 4 33 56
1941252N12146 1941 54 WP MM NOT_NAMED 1941-09-19 12:00:00 NR 34.3746 146.143 main 493 493 __________P___ -1 34.3746 146.143 4 30 55
1941252N12146 1941 54 WP MM NOT_NAMED 1941-09-19 15:00:00 NR 35.1869 147.536 main 598 598 __________P___ -1 35.1869 147.536 4 27 54
1941252N12146 1941 54 WP MM NOT_NAMED 1941-09-19 18:00:00 NR 35.9567 148.836 main 694 694 __________P___ -1 35.9567 148.836 4 26 54
1941252N12146 1941 54 WP MM NOT_NAMED 1941-09-19 21:00:00 NR 36.7000 150.100 main 764 __________O___ -1 36.7000 150.100 4 25 54

デジタル台風データ・検索

IBTrACS Databaseについて

本データベースは、米国NOAAが公開する1842年以降の世界の熱帯低気圧のベストトラックデータアーカイブInternational Best Track Archive for Climate Stewardship (IBTrACS)を、ウェブで閲覧しやすい形式に変換したものです。

最終更新日:2021-10-21